Time;durP1;ratioP1;P1;durP2;ratioP2;P2;SDS_P1;SDS_P2;PMS_P1;PMS_P2;Temp;Humidity;BMP_temperature;BMP_pressure;BME280_temperature;BME280_humidity;BME280_pressure;Samples;Min_cycle;Max_cycle;Signal;HPM_P1;HPM_P2
2021/12/12 00:00:36;;;;;;;;;;;16.70;99.90;;;;;;5017185;28;778;-53
2021/12/12 00:03:10;;;;;;;;;;;16.60;99.90;;;;;;5016499;28;1263;-53
2021/12/12 00:05:47;;;;;;;;;;;16.50;99.90;;;;;;5034785;28;1043;-53
2021/12/12 00:08:15;;;;;;;;;;;16.50;99.90;;;;;;4994768;28;855;-53
2021/12/12 00:10:45;;;;;;;;;;;16.40;99.90;;;;;;5011141;28;907;-52
2021/12/12 00:13:16;;;;;;;;;;;16.40;99.90;;;;;;5016580;28;818;-52
2021/12/12 00:15:43;;;;;;;;;;;16.30;99.90;;;;;;5016662;28;1910;-53
2021/12/12 00:18:09;;;;;;;;;;;16.30;99.90;;;;;;5015577;28;955;-52
2021/12/12 00:20:36;;;;;;;;;;;16.20;99.90;;;;;;5016919;28;850;-52
2021/12/12 00:23:04;;;;;;;;;;;16.20;99.90;;;;;;5016670;28;1215;-52
2021/12/12 00:25:33;;;;;;;;;;;16.10;99.90;;;;;;5034346;28;852;-52
2021/12/12 00:27:59;;;;;;;;;;;16.10;99.90;;;;;;5019532;28;868;-52
2021/12/12 00:30:26;;;;;;;;;;;16.00;99.90;;;;;;5016358;28;793;-52
2021/12/12 00:32:54;;;;;;;;;;;16.00;99.90;;;;;;5016396;28;849;-52
2021/12/12 00:35:21;;;;;;;;;;;15.90;99.90;;;;;;5016179;28;1903;-52
2021/12/12 00:37:48;;;;;;;;;;;15.90;99.90;;;;;;5016366;28;959;-52
2021/12/12 00:40:24;;;;;;;;;;;15.90;99.90;;;;;;5014982;28;1523;-52
2021/12/12 00:42:53;;;;;;;;;;;15.80;99.90;;;;;;5015788;28;1011;-52
2021/12/12 00:45:20;;;;;;;;;;;15.80;99.90;;;;;;4999250;28;817;-52
2021/12/12 00:47:47;;;;;;;;;;;15.80;99.90;;;;;;5016706;28;961;-52
2021/12/12 00:50:16;;;;;;;;;;;15.70;99.90;;;;;;5016005;28;991;-52
2021/12/12 00:52:46;;;;;;;;;;;15.70;99.90;;;;;;5016347;28;1036;-52
2021/12/12 00:55:13;;;;;;;;;;;15.60;99.90;;;;;;4982171;28;1428;-52
2021/12/12 00:57:42;;;;;;;;;;;15.60;99.90;;;;;;5016019;28;2040;-52
2021/12/12 01:00:12;;;;;;;;;;;15.60;99.90;;;;;;5016336;28;864;-52
2021/12/12 01:02:38;;;;;;;;;;;15.60;99.90;;;;;;5001976;28;1472;-52
2021/12/12 01:05:06;;;;;;;;;;;15.50;99.90;;;;;;5019995;28;902;-52
2021/12/12 01:07:35;;;;;;;;;;;15.50;99.90;;;;;;5019769;28;845;-52
2021/12/12 01:10:14;;;;;;;;;;;15.50;99.90;;;;;;5022350;28;925;-52
2021/12/12 01:12:42;;;;;;;;;;;15.40;99.90;;;;;;5035930;28;908;-52
2021/12/12 01:15:34;;;;;;;;;;;15.40;99.90;;;;;;5037963;28;854;-52
2021/12/12 01:18:04;;;;;;;;;;;15.30;99.90;;;;;;4958108;29;1100;-52
2021/12/12 01:20:52;;;;;;;;;;;15.30;99.90;;;;;;4904932;29;1102;-52
2021/12/12 01:23:24;;;;;;;;;;;15.30;99.90;;;;;;4940049;29;994;-52
2021/12/12 01:25:54;;;;;;;;;;;15.20;99.90;;;;;;4940411;29;956;-52
2021/12/12 01:28:24;;;;;;;;;;;15.20;99.90;;;;;;4940992;29;1107;-52
2021/12/12 01:30:53;;;;;;;;;;;15.20;99.90;;;;;;4957505;29;888;-52
2021/12/12 01:33:33;;;;;;;;;;;15.20;99.90;;;;;;4957726;29;878;-52
2021/12/12 01:36:23;;;;;;;;;;;15.20;99.90;;;;;;4943817;29;1915;-52
2021/12/12 01:38:52;;;;;;;;;;;15.10;99.90;;;;;;4957214;29;947;-52
2021/12/12 01:41:28;;;;;;;;;;;15.10;99.90;;;;;;4923751;29;1374;-52
2021/12/12 01:43:58;;;;;;;;;;;15.10;99.90;;;;;;4940006;29;904;-52
2021/12/12 01:46:51;;;;;;;;;;;15.10;99.90;;;;;;4940208;29;816;-52
2021/12/12 01:49:22;;;;;;;;;;;15.00;99.90;;;;;;4939837;29;930;-52
2021/12/12 01:51:50;;;;;;;;;;;15.00;99.90;;;;;;4954433;29;947;-52
2021/12/12 01:54:21;;;;;;;;;;;15.00;99.90;;;;;;4941351;28;914;-52
2021/12/12 01:56:54;;;;;;;;;;;14.90;99.90;;;;;;5018009;28;1918;-52
2021/12/12 01:59:22;;;;;;;;;;;14.90;99.90;;;;;;4984748;28;1142;-52
2021/12/12 02:02:01;;;;;;;;;;;14.90;99.90;;;;;;5018685;28;933;-52
2021/12/12 02:04:30;;;;;;;;;;;14.80;99.90;;;;;;5033689;28;1032;-52
2021/12/12 02:06:59;;;;;;;;;;;14.80;99.90;;;;;;5018311;28;952;-52
2021/12/12 02:09:25;;;;;;;;;;;14.80;99.90;;;;;;5018569;28;833;-52
2021/12/12 02:11:52;;;;;;;;;;;14.70;99.90;;;;;;4999789;28;1518;-52
2021/12/12 02:14:20;;;;;;;;;;;14.70;99.90;;;;;;5018445;28;857;-52
2021/12/12 02:16:48;;;;;;;;;;;14.70;99.90;;;;;;5018793;28;1981;-52
2021/12/12 02:19:28;;;;;;;;;;;14.70;99.90;;;;;;5018278;28;854;-52
2021/12/12 02:35:44;;;;;;;;;;;14.60;99.90;;;;;;5017996;28;876;-52
2021/12/12 02:38:13;;;;;;;;;;;14.60;99.90;;;;;;5018349;28;828;-52
2021/12/12 02:40:43;;;;;;;;;;;14.50;99.90;;;;;;5026162;28;817;-52
2021/12/12 02:43:13;;;;;;;;;;;14.50;99.90;;;;;;5035177;28;1059;-52
2021/12/12 02:45:41;;;;;;;;;;;14.50;99.90;;;;;;5018886;28;908;-52
2021/12/12 02:48:09;;;;;;;;;;;14.50;99.90;;;;;;5001883;28;1093;-52
2021/12/12 02:50:41;;;;;;;;;;;14.50;99.90;;;;;;5035524;28;927;-52
2021/12/12 02:53:13;;;;;;;;;;;14.50;99.90;;;;;;5035830;28;975;-52
2021/12/12 02:55:41;;;;;;;;;;;14.50;99.90;;;;;;5036127;28;856;-52
2021/12/12 02:58:10;;;;;;;;;;;14.50;99.90;;;;;;5017923;28;1379;-52
2021/12/12 03:00:41;;;;;;;;;;;14.40;99.90;;;;;;5017939;28;936;-52
2021/12/12 03:03:08;;;;;;;;;;;14.40;99.90;;;;;;5022021;28;1654;-52
2021/12/12 03:05:38;;;;;;;;;;;14.40;99.90;;;;;;4984122;28;938;-52
2021/12/12 03:08:06;;;;;;;;;;;14.40;99.90;;;;;;5000280;28;869;-55
2021/12/12 03:10:35;;;;;;;;;;;14.40;99.90;;;;;;5017082;28;1863;-55
2021/12/12 03:13:05;;;;;;;;;;;14.40;99.90;;;;;;5017074;28;956;-55
2021/12/12 03:15:38;;;;;;;;;;;14.40;99.90;;;;;;5000226;28;868;-53
2021/12/12 03:18:08;;;;;;;;;;;14.30;99.90;;;;;;5010825;28;1906;-52
2021/12/12 03:20:45;;;;;;;;;;;14.30;99.90;;;;;;5017083;28;814;-52
2021/12/12 03:23:22;;;;;;;;;;;14.30;99.90;;;;;;5016225;28;884;-52
2021/12/12 03:26:07;;;;;;;;;;;14.30;99.90;;;;;;5017372;28;760;-52
2021/12/12 03:28:36;;;;;;;;;;;14.30;99.90;;;;;;5014897;28;1104;-55
2021/12/12 03:31:04;;;;;;;;;;;14.30;99.90;;;;;;5017226;28;825;-54
2021/12/12 03:33:31;;;;;;;;;;;14.20;99.90;;;;;;5000250;28;874;-55
2021/12/12 03:35:58;;;;;;;;;;;14.20;99.90;;;;;;4999791;28;2291;-55
2021/12/12 03:38:27;;;;;;;;;;;14.20;99.90;;;;;;5017294;28;813;-55
2021/12/12 03:40:54;;;;;;;;;;;14.10;99.90;;;;;;5016674;28;905;-54
2021/12/12 03:43:22;;;;;;;;;;;14.20;99.90;;;;;;5016692;28;935;-52
2021/12/12 03:45:49;;;;;;;;;;;14.10;99.90;;;;;;5000216;28;908;-52
2021/12/12 03:48:23;;;;;;;;;;;14.20;99.90;;;;;;5017285;28;904;-52
2021/12/12 03:50:52;;;;;;;;;;;14.10;99.90;;;;;;4999598;28;977;-52
2021/12/12 03:53:19;;;;;;;;;;;14.10;99.90;;;;;;5016931;28;809;-52
2021/12/12 03:55:46;;;;;;;;;;;14.10;99.90;;;;;;4999783;28;895;-52
2021/12/12 03:58:12;;;;;;;;;;;14.10;99.90;;;;;;5016288;28;1964;-52
2021/12/12 04:00:46;;;;;;;;;;;14.00;99.90;;;;;;4999579;28;920;-52
2021/12/12 04:03:13;;;;;;;;;;;14.00;99.90;;;;;;4999303;28;898;-53
2021/12/12 04:05:44;;;;;;;;;;;14.00;99.90;;;;;;5016371;28;921;-52
2021/12/12 04:08:10;;;;;;;;;;;14.00;99.90;;;;;;5021031;28;1274;-53
2021/12/12 04:10:36;;;;;;;;;;;14.00;99.90;;;;;;5006940;28;1276;-52
2021/12/12 04:13:03;;;;;;;;;;;14.00;99.90;;;;;;5016864;28;883;-53
2021/12/12 04:15:31;;;;;;;;;;;14.00;99.90;;;;;;5034422;28;857;-53
2021/12/12 04:17:59;;;;;;;;;;;13.90;99.90;;;;;;5034978;28;1906;-53
2021/12/12 04:20:27;;;;;;;;;;;13.90;99.90;;;;;;5034768;28;817;-53
2021/12/12 04:22:53;;;;;;;;;;;13.90;99.90;;;;;;5034984;28;817;-53
2021/12/12 04:25:20;;;;;;;;;;;13.90;99.90;;;;;;5034713;28;960;-52
2021/12/12 04:27:48;;;;;;;;;;;13.90;99.90;;;;;;5020847;28;968;-53
2021/12/12 04:30:15;;;;;;;;;;;13.90;99.90;;;;;;5015829;28;874;-53
2021/12/12 04:32:42;;;;;;;;;;;13.90;99.90;;;;;;4999347;28;1599;-53
2021/12/12 04:35:15;;;;;;;;;;;13.80;99.90;;;;;;5016520;28;983;-52
2021/12/12 04:37:42;;;;;;;;;;;13.80;99.90;;;;;;5020514;28;1910;-52
2021/12/12 04:40:11;;;;;;;;;;;13.80;99.90;;;;;;5018874;28;938;-52
2021/12/12 04:42:38;;;;;;;;;;;13.80;99.90;;;;;;5019625;28;970;-52
2021/12/12 04:45:24;;;;;;;;;;;13.80;99.90;;;;;;5020124;28;879;-52
2021/12/12 04:51:15;;;;;;;;;;;13.80;99.90;;;;;;5020025;28;903;-52
2021/12/12 04:53:56;;;;;;;;;;;13.80;99.90;;;;;;5002224;28;931;-52
2021/12/12 04:56:28;;;;;;;;;;;13.70;99.90;;;;;;5019881;28;1923;-52
2021/12/12 04:59:15;;;;;;;;;;;13.70;99.90;;;;;;5019436;28;1193;-52
2021/12/12 05:01:44;;;;;;;;;;;13.70;99.90;;;;;;5020222;28;880;-52
2021/12/12 05:04:30;;;;;;;;;;;13.70;99.90;;;;;;5020188;28;844;-54
2021/12/12 05:07:16;;;;;;;;;;;13.70;99.90;;;;;;5019869;28;826;-56
2021/12/12 05:09:50;;;;;;;;;;;13.70;99.90;;;;;;5018751;28;889;-55
2021/12/12 05:12:24;;;;;;;;;;;13.70;99.90;;;;;;5034460;28;958;-55
2021/12/12 05:14:55;;;;;;;;;;;13.70;99.90;;;;;;5017807;28;1073;-52
2021/12/12 05:17:40;;;;;;;;;;;13.70;99.90;;;;;;5019559;28;1906;-52
2021/12/12 05:20:11;;;;;;;;;;;13.70;99.90;;;;;;5019812;28;1029;-52
2021/12/12 05:22:43;;;;;;;;;;;13.60;99.90;;;;;;5019482;28;846;-52
2021/12/12 05:25:14;;;;;;;;;;;13.60;99.90;;;;;;5019459;28;841;-52
2021/12/12 05:27:41;;;;;;;;;;;13.60;99.90;;;;;;5018962;28;1829;-52
2021/12/12 05:30:11;;;;;;;;;;;13.60;99.90;;;;;;5034649;28;926;-52
2021/12/12 05:32:38;;;;;;;;;;;13.60;99.90;;;;;;5018953;28;913;-52
2021/12/12 05:35:06;;;;;;;;;;;13.50;99.90;;;;;;5001500;28;910;-52
2021/12/12 05:37:34;;;;;;;;;;;13.60;99.90;;;;;;5018767;28;1969;-52
2021/12/12 05:40:11;;;;;;;;;;;13.50;99.90;;;;;;4988746;28;912;-52
2021/12/12 05:42:38;;;;;;;;;;;13.50;99.90;;;;;;5036647;28;1629;-52
2021/12/12 05:45:11;;;;;;;;;;;13.50;99.90;;;;;;5037157;28;1610;-52
2021/12/12 05:47:38;;;;;;;;;;;13.50;99.90;;;;;;5037210;28;907;-52
2021/12/12 05:50:05;;;;;;;;;;;13.50;99.90;;;;;;5037419;28;798;-52
2021/12/12 05:52:32;;;;;;;;;;;13.50;99.90;;;;;;5037128;28;900;-52
2021/12/12 05:55:00;;;;;;;;;;;13.50;99.90;;;;;;5003291;28;890;-52
2021/12/12 05:57:28;;;;;;;;;;;13.40;99.90;;;;;;5025194;28;1914;-52
2021/12/12 05:59:56;;;;;;;;;;;13.40;99.90;;;;;;5019136;28;874;-52
2021/12/12 06:02:23;;;;;;;;;;;13.50;99.90;;;;;;5018853;28;809;-52
2021/12/12 06:04:53;;;;;;;;;;;13.40;99.90;;;;;;5018757;28;887;-52
2021/12/12 06:07:20;;;;;;;;;;;13.40;99.90;;;;;;5033743;28;931;-52
2021/12/12 06:09:47;;;;;;;;;;;13.50;99.90;;;;;;5017390;28;1297;-52
2021/12/12 06:12:14;;;;;;;;;;;13.40;99.90;;;;;;5016418;28;1179;-55
2021/12/12 06:14:40;;;;;;;;;;;13.40;99.90;;;;;;5000897;28;872;-55
2021/12/12 06:17:11;;;;;;;;;;;13.40;99.90;;;;;;4984780;28;1906;-55
2021/12/12 06:19:38;;;;;;;;;;;13.40;99.90;;;;;;4984655;28;958;-55
2021/12/12 06:22:04;;;;;;;;;;;13.40;99.90;;;;;;5018329;28;885;-55
2021/12/12 06:24:31;;;;;;;;;;;13.40;99.90;;;;;;5017699;28;1011;-55
2021/12/12 06:27:02;;;;;;;;;;;13.30;99.90;;;;;;5018011;28;781;-55
2021/12/12 06:29:28;;;;;;;;;;;13.30;99.90;;;;;;5036379;28;849;-55
2021/12/12 06:31:55;;;;;;;;;;;13.30;99.90;;;;;;5036550;28;948;-55
2021/12/12 06:34:22;;;;;;;;;;;13.30;99.90;;;;;;5018614;28;927;-55
2021/12/12 06:36:49;;;;;;;;;;;13.30;99.90;;;;;;5002553;28;1990;-55
2021/12/12 06:39:16;;;;;;;;;;;13.30;99.90;;;;;;5035784;28;1032;-55
2021/12/12 06:41:44;;;;;;;;;;;13.30;99.90;;;;;;5019481;28;916;-55
2021/12/12 06:44:11;;;;;;;;;;;13.20;99.90;;;;;;5017073;28;901;-55
2021/12/12 06:46:38;;;;;;;;;;;13.20;99.90;;;;;;5000189;28;1040;-55
2021/12/12 06:49:09;;;;;;;;;;;13.20;99.90;;;;;;5017821;28;888;-55
2021/12/12 06:51:37;;;;;;;;;;;13.20;99.90;;;;;;5036126;28;851;-55
2021/12/12 06:54:05;;;;;;;;;;;13.20;99.90;;;;;;5035453;28;948;-55
2021/12/12 06:56:33;;;;;;;;;;;13.20;99.90;;;;;;5016785;28;1898;-55
2021/12/12 06:59:01;;;;;;;;;;;13.20;99.90;;;;;;5008798;28;1142;-55
2021/12/12 07:01:29;;;;;;;;;;;13.20;99.90;;;;;;4978510;28;863;-55
2021/12/12 07:03:55;;;;;;;;;;;13.20;99.90;;;;;;4978877;28;858;-55
2021/12/12 07:06:24;;;;;;;;;;;13.20;99.90;;;;;;5010146;28;908;-55
2021/12/12 07:08:51;;;;;;;;;;;13.20;99.90;;;;;;4977021;28;979;-55
2021/12/12 07:11:19;;;;;;;;;;;13.20;99.90;;;;;;4988738;28;994;-52
2021/12/12 07:13:46;;;;;;;;;;;13.10;99.90;;;;;;4996154;28;853;-52
2021/12/12 07:16:15;;;;;;;;;;;13.10;99.90;;;;;;4996055;28;821;-52
2021/12/12 07:18:42;;;;;;;;;;;13.10;99.90;;;;;;4996288;28;1973;-52
2021/12/12 07:21:13;;;;;;;;;;;13.10;99.90;;;;;;4996058;28;849;-52
2021/12/12 07:23:40;;;;;;;;;;;13.10;99.90;;;;;;5027596;28;1000;-52
2021/12/12 07:26:08;;;;;;;;;;;13.10;99.90;;;;;;4995237;28;975;-52
2021/12/12 07:28:35;;;;;;;;;;;13.10;99.90;;;;;;4977866;28;885;-52
2021/12/12 07:31:03;;;;;;;;;;;13.10;99.90;;;;;;5009238;28;1006;-52
2021/12/12 07:33:30;;;;;;;;;;;13.10;99.90;;;;;;5009101;28;1004;-52
2021/12/12 07:35:58;;;;;;;;;;;13.10;99.90;;;;;;4978117;28;834;-52
2021/12/12 07:38:27;;;;;;;;;;;13.10;99.90;;;;;;4977683;28;1968;-52
2021/12/12 07:40:54;;;;;;;;;;;13.10;99.90;;;;;;4978031;28;884;-52
2021/12/12 07:43:21;;;;;;;;;;;13.10;99.90;;;;;;4977719;28;810;-52
2021/12/12 07:45:47;;;;;;;;;;;13.10;99.90;;;;;;5009508;28;1360;-52
2021/12/12 07:48:36;;;;;;;;;;;13.20;99.90;;;;;;4978210;28;718;-52
2021/12/12 07:51:02;;;;;;;;;;;13.30;99.90;;;;;;5008454;28;944;-52
2021/12/12 07:53:29;;;;;;;;;;;13.30;99.90;;;;;;4992614;28;991;-52
2021/12/12 07:55:56;;;;;;;;;;;13.30;99.90;;;;;;4975620;28;929;-52
2021/12/12 07:58:23;;;;;;;;;;;13.40;99.90;;;;;;4993243;28;1903;-52
2021/12/12 08:00:52;;;;;;;;;;;13.50;99.90;;;;;;5001044;28;1047;-52
2021/12/12 08:03:27;;;;;;;;;;;13.50;99.90;;;;;;5012979;28;1282;-52
2021/12/12 08:05:54;;;;;;;;;;;13.60;99.90;;;;;;5015263;28;1580;-52
2021/12/12 08:08:24;;;;;;;;;;;13.70;99.90;;;;;;4982951;28;952;-52
2021/12/12 08:10:50;;;;;;;;;;;13.80;99.90;;;;;;5002349;28;833;-52
2021/12/12 08:13:16;;;;;;;;;;;13.90;99.90;;;;;;5003413;28;829;-52
2021/12/12 08:15:44;;;;;;;;;;;14.00;99.90;;;;;;5020718;28;868;-52
2021/12/12 08:18:12;;;;;;;;;;;14.10;99.90;;;;;;5003405;28;1914;-52
2021/12/12 08:20:40;;;;;;;;;;;14.20;99.90;;;;;;5020615;28;1143;-52
2021/12/12 08:23:08;;;;;;;;;;;14.30;99.90;;;;;;5020804;28;794;-52
2021/12/12 08:25:35;;;;;;;;;;;14.40;99.90;;;;;;5002926;28;853;-52
2021/12/12 08:28:22;;;;;;;;;;;14.50;99.90;;;;;;5020530;28;729;-52
2021/12/12 08:30:50;;;;;;;;;;;14.50;99.90;;;;;;5020369;28;891;-52
2021/12/12 08:33:16;;;;;;;;;;;14.60;99.90;;;;;;4986559;28;844;-52
2021/12/12 08:35:43;;;;;;;;;;;14.60;99.90;;;;;;5020683;28;812;-52
2021/12/12 08:38:13;;;;;;;;;;;14.70;99.90;;;;;;5020559;28;1907;-52
2021/12/12 08:40:43;;;;;;;;;;;14.80;99.90;;;;;;5028209;28;879;-52
2021/12/12 08:43:12;;;;;;;;;;;14.80;99.90;;;;;;5003909;28;887;-52
2021/12/12 08:45:41;;;;;;;;;;;14.90;99.90;;;;;;5004371;28;1065;-52
2021/12/12 08:48:08;;;;;;;;;;;14.90;99.90;;;;;;5028257;28;1331;-52
2021/12/12 08:50:36;;;;;;;;;;;14.90;99.90;;;;;;5002390;28;896;-52
2021/12/12 08:53:04;;;;;;;;;;;15.00;99.90;;;;;;5020381;28;892;-52
2021/12/12 08:55:34;;;;;;;;;;;15.00;99.90;;;;;;5003232;28;873;-52
2021/12/12 08:58:17;;;;;;;;;;;15.10;99.90;;;;;;5019056;28;1910;-52
2021/12/12 09:00:47;;;;;;;;;;;15.00;99.90;;;;;;5019407;28;833;-52
2021/12/12 09:03:16;;;;;;;;;;;15.10;99.90;;;;;;5018560;28;986;-52
2021/12/12 09:05:44;;;;;;;;;;;15.10;99.90;;;;;;5019087;28;883;-52
2021/12/12 09:08:12;;;;;;;;;;;15.10;99.90;;;;;;5035072;28;946;-52
2021/12/12 09:10:41;;;;;;;;;;;15.20;99.90;;;;;;5019235;28;858;-52
2021/12/12 09:13:17;;;;;;;;;;;15.20;99.90;;;;;;5019594;28;834;-52
2021/12/12 09:16:03;;;;;;;;;;;15.20;99.90;;;;;;5019815;28;802;-52
2021/12/12 09:18:42;;;;;;;;;;;15.30;99.90;;;;;;5019165;28;1910;-52
2021/12/12 09:21:13;;;;;;;;;;;15.30;99.90;;;;;;5001794;28;984;-52
2021/12/12 09:24:05;;;;;;;;;;;15.40;99.90;;;;;;5005760;28;777;-52
2021/12/12 09:26:34;;;;;;;;;;;15.30;99.90;;;;;;5018356;28;987;-52
2021/12/12 09:29:05;;;;;;;;;;;15.40;99.90;;;;;;5019197;28;1242;-52
2021/12/12 09:31:38;;;;;;;;;;;15.40;99.90;;;;;;5019781;28;1011;-52
2021/12/12 09:34:09;;;;;;;;;;;15.40;99.90;;;;;;5018452;28;897;-52
2021/12/12 09:36:50;;;;;;;;;;;15.50;99.90;;;;;;5034437;28;961;-55
2021/12/12 09:39:34;;;;;;;;;;;15.50;99.90;;;;;;5002641;28;872;-55
2021/12/12 09:42:12;;;;;;;;;;;15.50;99.90;;;;;;5019188;28;873;-55
2021/12/12 09:44:58;;;;;;;;;;;15.60;99.90;;;;;;5018470;28;894;-55
2021/12/12 09:47:58;;;;;;;;;;;15.50;99.90;;;;;;5018430;28;916;-52
2021/12/12 09:53:33;;;;;;;;;;;15.50;99.90;;;;;;5018896;28;832;-52
2021/12/12 09:56:11;;;;;;;;;;;15.60;99.90;;;;;;4981825;28;1079;-52
2021/12/12 09:59:00;;;;;;;;;;;15.50;99.90;;;;;;5018562;28;1894;-52
2021/12/12 10:01:37;;;;;;;;;;;15.50;99.90;;;;;;5018806;28;912;-52
2021/12/12 10:04:26;;;;;;;;;;;15.50;99.90;;;;;;5018605;28;857;-52
2021/12/12 10:07:25;;;;;;;;;;;15.50;99.90;;;;;;5033599;28;1221;-52
2021/12/12 10:09:56;;;;;;;;;;;15.50;99.90;;;;;;4941485;29;1104;-56
2021/12/12 10:12:24;;;;;;;;;;;15.40;99.90;;;;;;4956380;29;1063;-55
2021/12/12 10:14:53;;;;;;;;;;;15.40;99.90;;;;;;4952728;29;1391;-52
2021/12/12 10:17:22;;;;;;;;;;;15.30;99.90;;;;;;4951290;29;1910;-52
2021/12/12 10:20:10;;;;;;;;;;;15.30;99.90;;;;;;4943970;29;1333;-52
2021/12/12 10:22:40;;;;;;;;;;;15.20;99.90;;;;;;4940928;29;1058;-52
2021/12/12 10:25:23;;;;;;;;;;;15.20;99.90;;;;;;4942982;29;1106;-52
2021/12/12 10:28:09;;;;;;;;;;;15.20;99.90;;;;;;4940666;29;1175;-52
2021/12/12 10:30:39;;;;;;;;;;;15.10;99.90;;;;;;4954531;29;946;-52
2021/12/12 10:33:10;;;;;;;;;;;15.10;99.90;;;;;;4937526;29;1081;-55
2021/12/12 10:35:40;;;;;;;;;;;15.10;99.90;;;;;;4939028;29;1000;-56
2021/12/12 10:38:29;;;;;;;;;;;15.10;99.90;;;;;;4938993;29;1906;-56
2021/12/12 10:41:02;;;;;;;;;;;15.10;99.90;;;;;;4936207;29;1088;-52
2021/12/12 10:43:33;;;;;;;;;;;15.10;99.90;;;;;;4938469;29;1030;-56
2021/12/12 10:46:03;;;;;;;;;;;15.10;99.90;;;;;;4979194;28;1114;-55
2021/12/12 10:48:49;;;;;;;;;;;15.20;99.90;;;;;;5017927;28;1001;-56
2021/12/12 10:51:17;;;;;;;;;;;15.20;99.90;;;;;;4976751;28;1140;-55
2021/12/12 10:53:46;;;;;;;;;;;15.30;99.90;;;;;;5032968;28;853;-56
2021/12/12 10:56:17;;;;;;;;;;;15.30;99.90;;;;;;5017688;28;903;-52
2021/12/12 10:58:48;;;;;;;;;;;15.40;99.90;;;;;;5021761;28;1902;-56
2021/12/12 11:01:17;;;;;;;;;;;15.40;99.90;;;;;;5017576;28;867;-52
2021/12/12 11:03:52;;;;;;;;;;;15.40;99.90;;;;;;5017823;28;843;-52
2021/12/12 11:06:20;;;;;;;;;;;15.40;99.90;;;;;;5017659;28;1523;-56
2021/12/12 11:09:05;;;;;;;;;;;15.40;99.90;;;;;;4976871;28;954;-55
2021/12/12 11:11:54;;;;;;;;;;;15.40;99.90;;;;;;4976781;28;882;-56
2021/12/12 11:14:24;;;;;;;;;;;15.40;99.90;;;;;;4964148;28;1166;-56
2021/12/12 11:16:56;;;;;;;;;;;15.30;99.90;;;;;;4976818;28;844;-54
2021/12/12 11:19:38;;;;;;;;;;;15.40;99.90;;;;;;4976559;28;1017;-55
2021/12/12 11:22:18;;;;;;;;;;;15.50;99.90;;;;;;4975631;28;1458;-54
2021/12/12 11:25:29;;;;;;;;;;;15.50;99.90;;;;;;4977114;28;736;-56
2021/12/12 11:28:01;;;;;;;;;;;15.50;99.90;;;;;;4899488;29;1087;-55
2021/12/12 11:30:33;;;;;;;;;;;15.40;99.90;;;;;;4896132;29;984;-55
2021/12/12 11:33:00;;;;;;;;;;;15.50;99.90;;;;;;4880068;29;940;-55
2021/12/12 11:35:27;;;;;;;;;;;15.60;99.90;;;;;;4876640;29;1091;-55
2021/12/12 11:38:11;;;;;;;;;;;15.80;99.90;;;;;;4862662;29;1911;-52
2021/12/12 11:40:42;;;;;;;;;;;15.80;99.90;;;;;;4892501;29;1128;-55
2021/12/12 11:43:35;;;;;;;;;;;15.80;99.90;;;;;;4882996;29;1289;-55
2021/12/12 11:46:04;;;;;;;;;;;15.80;99.90;;;;;;4896245;29;1884;-54
2021/12/12 11:48:50;;;;;;;;;;;15.90;99.90;;;;;;4899381;29;945;-54
2021/12/12 11:51:38;;;;;;;;;;;16.00;99.90;;;;;;4899234;29;982;-54
2021/12/12 11:54:10;;;;;;;;;;;16.00;99.90;;;;;;4898842;29;1144;-54
2021/12/12 11:56:45;;;;;;;;;;;16.30;99.90;;;;;;4897508;29;864;-54
2021/12/12 11:59:22;;;;;;;;;;;16.40;99.90;;;;;;4868705;29;1900;-54
2021/12/12 12:02:08;;;;;;;;;;;16.60;99.90;;;;;;4901888;29;1195;-54
2021/12/12 12:04:52;;;;;;;;;;;16.70;99.90;;;;;;4901607;29;1123;-52
2021/12/12 12:07:58;;;;;;;;;;;16.80;99.90;;;;;;4947942;29;785;-54
2021/12/12 12:10:41;;;;;;;;;;;16.80;99.90;;;;;;4937779;29;1099;-54
2021/12/12 12:13:26;;;;;;;;;;;16.80;99.90;;;;;;4881028;29;970;-52
2021/12/12 12:16:17;;;;;;;;;;;16.90;99.90;;;;;;4876365;29;1030;-52
2021/12/12 12:19:10;;;;;;;;;;;16.90;99.90;;;;;;4880422;29;1977;-52
2021/12/12 12:21:41;;;;;;;;;;;17.00;99.90;;;;;;4873031;29;1189;-52
2021/12/12 12:24:17;;;;;;;;;;;17.00;99.90;;;;;;4876568;29;1268;-52
2021/12/12 12:26:55;;;;;;;;;;;17.10;99.90;;;;;;4878560;29;1291;-52
2021/12/12 12:29:31;;;;;;;;;;;17.30;99.90;;;;;;4881222;29;1097;-52
2021/12/12 12:32:13;;;;;;;;;;;17.40;99.90;;;;;;4881151;29;923;-52
2021/12/12 12:35:19;;;;;;;;;;;17.50;99.90;;;;;;4877917;29;1172;-52
2021/12/12 12:37:54;;;;;;;;;;;17.60;99.90;;;;;;4880610;29;1887;-54
2021/12/12 12:40:38;;;;;;;;;;;17.60;99.90;;;;;;4880734;29;999;-55
2021/12/12 12:43:24;;;;;;;;;;;17.70;99.90;;;;;;4956950;28;858;-56
2021/12/12 12:46:00;;;;;;;;;;;17.80;99.90;;;;;;4999711;28;986;-53
2021/12/12 12:48:45;;;;;;;;;;;17.80;99.90;;;;;;4999974;23;1877;-55
2021/12/12 12:51:29;;;;;;;;;;;17.80;99.90;;;;;;5029470;28;855;-55
2021/12/12 12:54:16;;;;;;;;;;;17.80;99.90;;;;;;5017325;28;947;-54
2021/12/12 12:57:06;;;;;;;;;;;17.80;99.90;;;;;;5021699;28;1003;-55
2021/12/12 12:59:54;;;;;;;;;;;17.80;99.90;;;;;;5003897;28;1985;-54
2021/12/12 13:02:23;;;;;;;;;;;17.80;99.90;;;;;;5020941;28;906;-54
2021/12/12 13:05:07;;;;;;;;;;;17.80;99.90;;;;;;5029404;28;1122;-55
2021/12/12 13:07:52;;;;;;;;;;;17.80;99.90;;;;;;5020062;28;1158;-55
2021/12/12 13:10:24;;;;;;;;;;;17.80;99.90;;;;;;4985603;28;1261;-55
2021/12/12 13:13:00;;;;;;;;;;;17.90;99.90;;;;;;4997043;28;1439;-54
2021/12/12 13:15:44;;;;;;;;;;;17.90;99.90;;;;;;5020550;28;1487;-56
2021/12/12 13:18:17;;;;;;;;;;;17.90;99.90;;;;;;5022810;28;1899;-55
2021/12/12 13:21:03;;;;;;;;;;;17.90;99.90;;;;;;5021722;28;914;-56
2021/12/12 13:23:43;;;;;;;;;;;17.80;99.90;;;;;;5018900;28;882;-54
2021/12/12 13:26:11;;;;;;;;;;;17.80;99.90;;;;;;5031674;28;976;-53
2021/12/12 13:29:03;;;;;;;;;;;17.80;99.90;;;;;;5022845;28;861;-55
2021/12/12 13:31:38;;;;;;;;;;;17.70;99.90;;;;;;5018519;28;865;-55
2021/12/12 13:34:07;;;;;;;;;;;17.60;99.90;;;;;;5017926;28;1052;-56
2021/12/12 13:36:51;;;;;;;;;;;17.50;99.90;;;;;;5001992;28;886;-55
2021/12/12 13:39:36;;;;;;;;;;;17.40;99.90;;;;;;5032161;28;1902;-55
2021/12/12 13:42:11;;;;;;;;;;;17.40;99.90;;;;;;5037525;28;810;-55
2021/12/12 13:44:56;;;;;;;;;;;17.30;99.90;;;;;;5037291;28;868;-55
2021/12/12 13:47:40;;;;;;;;;;;17.20;99.90;;;;;;5037303;28;872;-55
2021/12/12 13:50:27;;;;;;;;;;;17.20;99.90;;;;;;5013077;28;1285;-55
2021/12/12 13:53:05;;;;;;;;;;;17.20;99.90;;;;;;5018938;28;858;-56
2021/12/12 13:55:31;;;;;;;;;;;17.10;99.90;;;;;;5016082;28;1273;-54
2021/12/12 13:58:15;;;;;;;;;;;17.10;99.90;;;;;;5018473;28;1965;-54
2021/12/12 14:00:46;;;;;;;;;;;17.10;99.90;;;;;;5018912;28;954;-56
2021/12/12 14:03:21;;;;;;;;;;;17.10;99.90;;;;;;5018746;28;848;-54
2021/12/12 14:05:49;;;;;;;;;;;17.10;99.90;;;;;;5001114;28;888;-55
2021/12/12 14:08:29;;;;;;;;;;;17.10;99.90;;;;;;5018552;28;904;-54
2021/12/12 14:11:13;;;;;;;;;;;17.10;99.90;;;;;;5001191;28;1227;-53
2021/12/12 14:13:47;;;;;;;;;;;17.10;99.90;;;;;;5017254;28;913;-55
2021/12/12 14:16:13;;;;;;;;;;;17.00;99.90;;;;;;5032220;28;882;-55
2021/12/12 14:18:44;;;;;;;;;;;16.90;99.90;;;;;;5036043;28;1906;-54
2021/12/12 14:21:11;;;;;;;;;;;16.80;99.90;;;;;;5018398;28;834;-54
2021/12/12 14:23:38;;;;;;;;;;;16.70;99.90;;;;;;5020220;28;1389;-55
2021/12/12 14:26:08;;;;;;;;;;;16.70;99.90;;;;;;5018208;28;1721;-54
2021/12/12 14:28:36;;;;;;;;;;;16.60;99.90;;;;;;5018348;28;841;-54
2021/12/12 14:31:04;;;;;;;;;;;16.60;99.90;;;;;;5017985;28;817;-54
2021/12/12 14:33:34;;;;;;;;;;;16.50;99.90;;;;;;5018400;28;886;-54
2021/12/12 14:36:05;;;;;;;;;;;16.50;99.90;;;;;;5017773;28;827;-54
2021/12/12 14:38:32;;;;;;;;;;;16.40;99.90;;;;;;5017619;28;1963;-54
2021/12/12 14:41:01;;;;;;;;;;;16.40;99.90;;;;;;5017807;28;866;-52
2021/12/12 14:43:43;;;;;;;;;;;16.40;99.90;;;;;;5000732;28;894;-54
2021/12/12 14:46:17;;;;;;;;;;;16.30;99.90;;;;;;5018066;28;965;-54
2021/12/12 14:49:19;;;;;;;;;;;16.30;99.90;;;;;;5023957;28;1157;-52
2021/12/12 14:52:06;;;;;;;;;;;16.30;99.90;;;;;;4976429;28;1473;-54
2021/12/12 14:54:39;;;;;;;;;;;16.20;99.90;;;;;;5050773;28;976;-54
2021/12/12 14:57:09;;;;;;;;;;;16.20;99.90;;;;;;5055816;28;918;-54
2021/12/12 14:59:37;;;;;;;;;;;16.20;99.90;;;;;;5055965;28;2365;-54
2021/12/12 15:02:23;;;;;;;;;;;16.20;99.90;;;;;;5055741;28;892;-54
2021/12/12 15:04:52;;;;;;;;;;;16.20;99.90;;;;;;5054807;28;1596;-54
2021/12/12 15:07:19;;;;;;;;;;;16.20;99.90;;;;;;5037554;28;979;-53
2021/12/12 15:09:45;;;;;;;;;;;16.10;99.90;;;;;;5055578;28;875;-52
2021/12/12 15:12:14;;;;;;;;;;;16.20;99.90;;;;;;5055781;28;850;-52
2021/12/12 15:14:44;;;;;;;;;;;16.20;99.90;;;;;;5038167;28;916;-52
2021/12/12 15:17:12;;;;;;;;;;;16.20;99.90;;;;;;5056102;28;742;-52
2021/12/12 15:19:52;;;;;;;;;;;16.20;99.90;;;;;;5046635;28;1901;-52
2021/12/12 15:22:19;;;;;;;;;;;16.20;99.90;;;;;;5037215;28;882;-54
2021/12/12 15:24:51;;;;;;;;;;;16.10;99.90;;;;;;5036639;28;862;-55
2021/12/12 15:27:38;;;;;;;;;;;16.10;99.90;;;;;;5036616;28;898;-54
2021/12/12 15:30:08;;;;;;;;;;;16.10;99.90;;;;;;5036696;28;1344;-54
2021/12/12 15:32:34;;;;;;;;;;;16.10;99.90;;;;;;5036759;28;977;-53